Time;durP1;ratioP1;P1;durP2;ratioP2;P2;SDS_P1;SDS_P2;PMS_P1;PMS_P2;Temp;Humidity;BMP_temperature;BMP_pressure;BME280_temperature;BME280_humidity;BME280_pressure;Samples;Min_cycle;Max_cycle;Signal;HPM_P1;HPM_P2
2021/12/06 00:02:15;;;;;;;21.90;15.43;;;;;;;7.55;53.34;99288.36;2323250;83;25622;-72
2021/12/06 00:05:50;;;;;;;19.27;14.73;;;;;;;7.54;53.34;99286.63;2318009;83;26008;-73
2021/12/06 00:09:29;;;;;;;19.67;15.72;;;;;;;7.56;53.32;99296.62;2287729;85;25976;-72
2021/12/06 00:13:06;;;;;;;19.98;14.90;;;;;;;7.55;53.30;99296.14;2288315;86;25973;-74
2021/12/06 00:16:27;;;;;;;19.32;14.47;;;;;;;7.55;53.29;99309.98;2267496;86;26459;-71
2021/12/06 00:20:04;;;;;;;24.77;14.50;;;;;;;7.56;53.29;99306.56;2292087;84;26749;-71
2021/12/06 00:23:29;;;;;;;17.87;14.58;;;;;;;7.56;53.25;99307.86;2289381;85;25693;-72
2021/12/06 00:27:07;;;;;;;;;;;;;;;;;;;;;
2021/12/06 00:30:24;;;;;;;15.63;13.55;;;;;;;7.58;53.25;99310.47;2308833;83;25708;-73
2021/12/06 00:33:46;;;;;;;17.90;14.78;;;;;;;7.58;53.21;99309.17;2328011;83;25298;-71
2021/12/06 00:41:06;;;;;;;17.10;13.30;;;;;;;7.59;53.19;99313.50;2237156;87;26087;-72
2021/12/06 00:44:26;;;;;;;16.82;13.03;;;;;;;7.59;53.20;99312.20;2233734;88;26013;-71
2021/12/06 00:47:48;;;;;;;18.83;12.97;;;;;;;7.61;53.18;99312.25;2229977;88;25771;-70
2021/12/06 00:51:15;;;;;;;15.63;12.78;;;;;;;7.61;53.16;99319.60;2232966;88;25666;-71
2021/12/06 00:54:36;;;;;;;19.02;12.85;;;;;;;7.61;53.16;99318.30;2232796;88;25284;-71
2021/12/06 00:58:13;;;;;;;17.07;12.88;;;;;;;7.61;53.15;99327.81;2230755;88;25776;-71
2021/12/06 01:02:00;;;;;;;21.57;14.53;;;;;;;7.60;53.15;99328.23;2231396;86;25742;-75
2021/12/06 01:05:25;;;;;;;19.42;12.90;;;;;;;7.60;53.14;99329.97;2231624;88;25894;-71
2021/12/06 01:08:46;;;;;;;15.63;12.80;;;;;;;7.62;53.12;99333.44;2235748;88;25763;-77
2021/12/06 01:12:11;;;;;;;15.88;12.50;;;;;;;7.62;53.12;99335.61;2234979;87;25795;-71
2021/12/06 01:16:02;;;;;;;18.05;13.00;;;;;;;7.62;53.13;99313.98;2229500;88;25570;-72
2021/12/06 01:19:32;;;;;;;16.42;12.60;;;;;;;7.62;53.13;99304.91;2322952;83;25681;-74
2021/12/06 01:23:08;;;;;;;17.07;12.93;;;;;;;7.63;53.13;99311.84;2323134;84;25774;-72
2021/12/06 01:42:10;;;;;;;14.47;11.65;;;;;;;7.62;53.10;99323.94;2171474;88;25730;-71
2021/12/06 01:45:36;;;;;;;17.80;12.93;;;;;;;7.63;53.10;99328.30;2183474;89;25789;-74
2021/12/06 01:48:58;;;;;;;15.48;12.45;;;;;;;7.63;53.11;99332.59;2179131;89;25733;-72
2021/12/06 01:52:27;;;;;;;14.03;11.75;;;;;;;7.64;53.14;99342.14;2183523;90;25871;-71
2021/12/06 01:56:01;;;;;;;;;;;;;;;7.64;53.14;99347.33;2185524;90;25790;-70
2021/12/06 01:59:24;;;;;;;17.32;12.98;;;;;;;7.63;53.14;99356.83;2184715;90;25702;-71
2021/12/06 02:02:54;;;;;;;16.07;12.35;;;;;;;7.63;53.13;99365.91;2184627;90;25650;-73
2021/12/06 02:06:17;;;;;;;16.57;12.70;;;;;;;7.64;53.15;99362.89;2207135;88;25761;-71
2021/12/06 02:09:39;;;;;;;16.15;12.78;;;;;;;7.63;53.14;99351.64;2219680;89;25688;-71
2021/12/06 02:13:03;;;;;;;15.23;12.23;;;;;;;7.63;53.15;99355.53;2217877;87;25702;-72
2021/12/06 02:16:56;;;;;;;14.85;11.97;;;;;;;7.63;53.17;99352.94;2213547;87;26013;-71
2021/12/06 02:20:24;;;;;;;18.62;12.45;;;;;;;7.63;53.17;99351.64;2194044;88;25801;-71
2021/12/06 02:23:42;;;;;;;19.12;12.33;;;;;;;7.63;53.15;99354.63;2304703;82;25288;-70
2021/12/06 02:27:07;;;;;;;15.58;12.63;;;;;;;7.63;53.14;99355.53;2339698;84;25662;-71
2021/12/06 02:30:50;;;;;;;15.60;12.05;;;;;;;7.64;53.16;99358.57;2340141;82;25991;-70
2021/12/06 02:34:23;;;;;;;13.35;11.40;;;;;;;7.64;53.16;99355.98;2340106;82;25578;-72
2021/12/06 02:38:03;;;;;;;18.67;11.75;;;;;;;7.65;53.17;99356.84;2340686;84;25737;-71
2021/12/06 02:41:25;;;;;;;14.03;11.20;;;;;;;7.64;53.16;99361.16;2374784;81;25762;-71
2021/12/06 02:44:53;;;;;;;13.65;12.07;;;;;;;7.65;53.16;99370.69;2344828;82;25781;-71
2021/12/06 02:48:15;;;;;;;14.33;11.22;;;;;;;7.64;53.17;99362.46;2323826;84;25631;-71
2021/12/06 02:51:37;;;;;;;13.45;11.20;;;;;;;7.63;53.19;99358.13;2349145;83;25580;-71
2021/12/06 02:55:01;;;;;;;17.00;11.95;;;;;;;7.64;53.17;99362.46;2345862;83;25743;-70
2021/12/06 03:02:18;;;;;;;;;;;;;;;;;;;;;
2021/12/06 03:05:40;;;;;;;13.55;10.40;;;;;;;7.65;53.19;99364.62;2335783;83;25670;-70
2021/12/06 03:09:14;;;;;;;13.55;10.38;;;;;;;7.65;53.19;99362.03;2310482;85;25220;-71
2021/12/06 03:12:36;;;;;;;12.78;10.45;;;;;;;7.65;53.19;99365.92;2309598;84;25699;-71
2021/12/06 03:15:57;;;;;;;12.82;10.13;;;;;;;7.64;53.19;99359.87;2309380;84;25676;-71
2021/12/06 03:19:20;;;;;;;13.53;11.05;;;;;;;7.63;53.21;99362.02;2309888;85;25944;-72
2021/12/06 03:22:44;;;;;;;15.03;10.68;;;;;;;7.64;53.21;99364.19;2309096;84;25691;-71
2021/12/06 03:26:09;;;;;;;11.53;9.98;;;;;;;7.63;53.20;99362.02;2306868;85;25585;-71
2021/12/06 03:29:32;;;;;;;11.48;10.28;;;;;;;7.63;53.24;99362.02;2308539;85;25635;-70
2021/12/06 03:32:53;;;;;;;13.20;10.58;;;;;;;7.62;53.21;99357.66;2309962;84;25211;-73
2021/12/06 03:36:18;;;;;;;12.43;10.40;;;;;;;7.63;53.24;99365.91;2305392;85;25698;-70
2021/12/06 03:39:52;;;;;;;13.43;9.50;;;;;;;7.63;53.23;99363.31;2307577;85;26515;-71
2021/12/06 03:43:18;;;;;;;11.00;9.87;;;;;;;7.62;53.22;99365.86;2315325;84;25688;-71
2021/12/06 03:46:41;;;;;;;11.55;9.33;;;;;;;7.62;53.25;99365.86;2330440;84;25657;-71
2021/12/06 03:50:22;;;;;;;11.38;9.18;;;;;;;7.61;53.25;99366.30;2329543;83;25599;-72
2021/12/06 03:53:45;;;;;;;11.15;9.40;;;;;;;7.62;53.25;99373.22;2326659;83;25912;-70
2021/12/06 03:57:07;;;;;;;11.10;9.85;;;;;;;7.62;53.25;99375.81;2328805;84;25671;-70
2021/12/06 04:00:29;;;;;;;12.98;9.98;;;;;;;7.62;53.27;99380.12;2330723;84;25679;-72
2021/12/06 04:03:51;;;;;;;10.23;9.18;;;;;;;7.63;53.27;99384.46;2328960;84;25714;-71
2021/12/06 04:07:13;;;;;;;10.15;8.78;;;;;;;7.61;53.24;99383.16;2330484;84;25618;-71
2021/12/06 04:10:36;;;;;;;10.40;8.98;;;;;;;7.62;53.25;99390.08;2327900;84;25753;-71
2021/12/06 04:13:58;;;;;;;9.53;8.10;;;;;;;7.62;53.27;99386.19;2329153;84;25674;-75
2021/12/06 04:17:20;;;;;;;9.03;8.13;;;;;;;7.62;53.25;99395.69;2328534;84;25702;-73
2021/12/06 04:20:42;;;;;;;9.28;8.48;;;;;;;7.62;53.25;99392.67;2330247;83;26292;-71
2021/12/06 04:24:04;;;;;;;9.53;8.08;;;;;;;7.62;53.25;99397.86;2329163;84;25928;-70
2021/12/06 04:27:35;;;;;;;9.03;7.80;;;;;;;7.63;53.27;99400.92;2330558;84;25686;-70
2021/12/06 04:31:13;;;;;;;6.95;6.35;;;;;;;7.62;53.25;99408.66;2308645;84;25690;-71
2021/12/06 04:34:41;;;;;;;8.88;8.08;;;;;;;7.64;53.27;99419.53;2329350;84;25690;-71
2021/12/06 04:38:26;;;;;;;8.75;7.90;;;;;;;7.63;53.25;99427.26;2327161;84;25695;-70
2021/12/06 04:41:51;;;;;;;7.50;6.50;;;;;;;7.63;53.28;99435.04;2326048;84;25658;-70
2021/12/06 04:45:15;;;;;;;8.00;7.20;;;;;;;7.63;53.25;99441.53;2329566;84;25620;-70
2021/12/06 04:48:36;;;;;;;7.83;7.12;;;;;;;7.63;53.23;99442.82;2328324;84;25377;-71
2021/12/06 04:52:03;;;;;;;7.92;6.30;;;;;;;7.63;53.29;99455.40;2328430;83;25711;-71
2021/12/06 04:55:34;;;;;;;8.25;7.47;;;;;;;7.63;53.27;99454.50;2329652;84;25639;-77
2021/12/06 04:59:20;;;;;;;7.58;6.87;;;;;;;7.62;53.27;99457.52;2329029;83;25808;-70
2021/12/06 05:02:55;;;;;;;;;;;;;;;7.63;53.28;99464.87;2329652;84;25872;-71
2021/12/06 05:06:24;;;;;;;7.35;6.72;;;;;;;7.62;53.27;99469.61;2289165;81;25699;-77
2021/12/06 05:09:48;;;;;;;;;;;;;;;7.60;53.28;99468.73;2331962;84;25582;-71
2021/12/06 05:13:10;;;;;;;7.87;7.15;;;;;;;7.55;53.30;99469.48;2364581;81;26149;-71
2021/12/06 05:16:38;;;;;;;7.95;7.22;;;;;;;7.56;53.31;99481.63;2366009;81;25694;-71
2021/12/06 05:20:11;;;;;;;9.00;7.92;;;;;;;7.55;53.34;99475.97;2367841;83;26300;-71
2021/12/06 05:23:33;;;;;;;9.38;8.48;;;;;;;7.56;53.34;99475.58;2379045;81;25682;-78
2021/12/06 05:26:55;;;;;;;8.98;7.20;;;;;;;7.56;53.34;99471.69;2380059;82;25616;-71
2021/12/06 05:30:20;;;;;;;8.68;7.72;;;;;;;7.56;53.34;99458.72;2378475;83;25622;-70
2021/12/06 05:33:47;;;;;;;8.63;7.78;;;;;;;7.56;53.33;99463.47;2379283;81;25560;-72
2021/12/06 05:37:13;;;;;;;8.85;7.30;;;;;;;7.55;53.33;99452.63;2380467;83;25580;-71
2021/12/06 05:40:35;;;;;;;8.03;7.35;;;;;;;7.55;53.33;99454.34;2375537;81;25884;-71
2021/12/06 05:43:56;;;;;;;8.85;8.05;;;;;;;7.55;53.36;99450.45;2368436;82;25662;-72
2021/12/06 05:47:17;;;;;;;8.37;7.53;;;;;;;7.54;53.36;99452.61;2366682;82;25709;-71
2021/12/06 05:50:38;;;;;;;8.33;7.53;;;;;;;7.55;53.37;99445.27;2360481;81;25425;-77
2021/12/06 05:54:00;;;;;;;10.25;8.38;;;;;;;7.54;53.35;99440.51;2361787;82;26387;-71
2021/12/06 05:57:21;;;;;;;7.90;7.20;;;;;;;7.54;53.37;99435.75;2343082;83;25555;-70
2021/12/06 06:00:47;;;;;;;7.78;7.08;;;;;;;7.53;53.36;99431.41;2296781;84;25726;-71
2021/12/06 06:04:27;;;;;;;8.65;7.83;;;;;;;7.52;53.35;99429.22;2164294;89;25768;-71
2021/12/06 06:07:51;;;;;;;9.15;8.28;;;;;;;7.54;53.36;99435.75;2164941;89;25706;-70
2021/12/06 06:11:12;;;;;;;8.60;7.83;;;;;;;7.53;53.34;99430.12;2164317;88;25848;-72
2021/12/06 06:14:36;;;;;;;9.63;7.72;;;;;;;7.52;53.36;99430.94;2160207;89;25581;-70
2021/12/06 06:18:00;;;;;;;7.87;7.08;;;;;;;7.52;53.34;99441.31;2160181;89;26101;-72
2021/12/06 06:21:34;;;;;;;8.55;7.45;;;;;;;7.52;53.36;99445.20;2166783;89;25976;-72
2021/12/06 06:24:55;;;;;;;9.03;8.13;;;;;;;7.53;53.34;99448.27;2168134;91;25934;-76
2021/12/06 06:28:16;;;;;;;8.90;8.00;;;;;;;7.52;53.31;99465.95;2168741;89;25920;-73
2021/12/06 06:31:39;;;;;;;8.68;7.72;;;;;;;7.50;53.32;99471.12;2166459;89;25837;-75
2021/12/06 06:35:01;;;;;;;7.58;6.85;;;;;;;7.50;53.33;99490.57;2171295;90;25752;-76
2021/12/06 06:38:23;;;;;;;9.08;8.10;;;;;;;7.49;53.33;99497.91;2227914;87;25790;-71
2021/12/06 06:41:44;;;;;;;8.58;7.78;;;;;;;7.51;53.33;99509.59;2224625;86;25710;-71
2021/12/06 06:45:08;;;;;;;9.20;8.28;;;;;;;7.49;53.32;99519.95;2209750;88;25814;-71
2021/12/06 06:48:29;;;;;;;8.35;7.55;;;;;;;7.50;53.33;99530.77;2210163;88;25801;-72
2021/12/06 06:51:51;;;;;;;8.13;7.35;;;;;;;7.50;53.34;99535.09;2208882;89;25727;-75
2021/12/06 06:55:13;;;;;;;8.23;7.50;;;;;;;7.50;53.31;99539.84;2220081;88;25724;-71
2021/12/06 06:58:34;;;;;;;9.10;8.23;;;;;;;7.49;53.32;99543.29;2236683;86;25886;-72
2021/12/06 07:02:08;;;;;;;8.45;7.65;;;;;;;7.49;53.32;99552.76;2351165;81;25997;-75
2021/12/06 07:05:31;;;;;;;8.68;7.87;;;;;;;7.47;53.32;99557.92;2360750;82;25688;-73
2021/12/06 07:08:54;;;;;;;9.50;7.72;;;;;;;7.48;53.32;99553.19;2367301;83;25669;-71
2021/12/06 07:12:17;;;;;;;7.80;7.10;;;;;;;7.50;53.32;99549.34;2367422;82;25650;-73
2021/12/06 07:15:38;;;;;;;9.13;8.23;;;;;;;7.49;53.32;99549.77;2367443;81;26427;-71
2021/12/06 07:18:59;;;;;;;8.50;7.70;;;;;;;7.51;53.31;99533.81;2366291;82;25737;-72
2021/12/06 07:22:20;;;;;;;9.07;8.13;;;;;;;7.52;53.30;99524.30;2364039;81;26164;-70
2021/12/06 07:26:08;;;;;;;8.25;7.53;;;;;;;7.53;53.28;99528.67;2361722;81;25618;-73
2021/12/06 07:33:49;;;;;;;9.35;8.43;;;;;;;7.55;53.28;99533.45;2222015;88;25720;-71
2021/12/06 07:37:38;;;;;;;8.47;7.57;;;;;;;7.56;53.25;99541.70;2227389;88;26019;-72
2021/12/06 07:40:59;;;;;;;13.00;8.30;;;;;;;7.56;53.26;99552.09;2235580;87;25993;-78
2021/12/06 07:44:21;;;;;;;9.80;8.90;;;;;;;7.56;53.24;99538.69;2235747;88;25720;-73
2021/12/06 07:47:51;;;;;;;9.38;8.38;;;;;;;7.59;53.23;99537.86;2227093;88;26058;-72
2021/12/06 07:51:12;;;;;;;10.13;9.13;;;;;;;7.58;53.23;99533.09;2225820;88;25982;-73
2021/12/06 07:54:34;;;;;;;12.93;10.15;;;;;;;7.59;53.21;99546.94;2226607;88;25671;-74
2021/12/06 07:57:56;;;;;;;10.93;9.23;;;;;;;7.60;53.21;99551.73;2227960;88;25651;-71
2021/12/06 08:01:18;;;;;;;11.05;9.35;;;;;;;7.59;53.22;99553.42;2227967;88;25765;-74
2021/12/06 08:04:39;;;;;;;13.20;9.60;;;;;;;7.60;53.21;99556.91;2224632;88;26373;-72
2021/12/06 08:08:12;;;;;;;10.93;9.88;;;;;;;7.60;53.19;99559.09;2225156;88;25813;-72
2021/12/06 08:11:34;;;;;;;10.88;9.70;;;;;;;7.61;53.18;99553.05;2222703;87;26008;-73
2021/12/06 08:14:55;;;;;;;14.65;10.58;;;;;;;7.61;53.19;99553.47;2222726;88;25647;-72
2021/12/06 08:18:16;;;;;;;14.95;10.98;;;;;;;7.60;53.18;99541.36;2225565;88;25733;-72
2021/12/06 08:21:52;;;;;;;11.45;10.20;;;;;;;7.59;53.19;99553.42;2225640;87;25941;-73
2021/12/06 08:25:15;;;;;;;16.82;11.43;;;;;;;7.60;53.18;99566.00;2226214;87;26133;-73
2021/12/06 08:28:37;;;;;;;15.72;11.55;;;;;;;7.60;53.18;99571.19;2295116;83;25657;-72
2021/12/06 08:31:59;;;;;;;18.15;11.68;;;;;;;7.60;53.19;99578.54;2385390;83;26319;-72
2021/12/06 08:35:20;;;;;;;14.38;11.40;;;;;;;7.61;53.18;99584.59;2385510;83;25730;-72
2021/12/06 08:38:42;;;;;;;18.30;12.20;;;;;;;7.61;53.17;99587.19;2385223;83;25670;-72
2021/12/06 08:42:05;;;;;;;17.80;11.80;;;;;;;7.61;53.16;99593.25;2385491;82;25638;-74
2021/12/06 08:45:29;;;;;;;20.92;13.30;;;;;;;7.62;53.15;99598.88;2378866;82;25669;-78
2021/12/06 08:48:52;;;;;;;16.70;12.63;;;;;;;7.61;53.14;99588.06;2370923;81;25226;-73
2021/12/06 08:52:14;;;;;;;17.10;12.40;;;;;;;7.62;53.14;99598.02;2370642;83;25615;-72
2021/12/06 08:55:35;;;;;;;15.50;12.50;;;;;;;7.62;53.15;99609.69;2371087;83;25157;-72
2021/12/06 08:58:57;;;;;;;16.15;13.88;;;;;;;7.62;53.15;99605.80;2370938;81;25638;-73
2021/12/06 09:02:21;;;;;;;19.42;13.58;;;;;;;7.61;53.14;99616.59;2370876;83;25674;-71
2021/12/06 09:05:47;;;;;;;16.77;13.08;;;;;;;7.62;53.13;99623.53;2370705;81;25656;-79
2021/12/06 09:09:09;;;;;;;19.30;13.55;;;;;;;7.63;53.12;99620.51;2370366;82;25610;-78
2021/12/06 09:12:31;;;;;;;18.48;13.62;;;;;;;7.64;53.12;99614.50;2370591;82;25607;-71
2021/12/06 09:15:53;;;;;;;23.30;14.20;;;;;;;7.63;53.13;99617.91;2370787;83;26004;-80
2021/12/06 09:19:16;;;;;;;18.95;13.83;;;;;;;7.63;53.12;99624.40;2370568;83;25847;-81
2021/12/06 09:22:38;;;;;;;19.62;13.68;;;;;;;7.63;53.12;99624.01;2370781;82;25685;-78
2021/12/06 09:26:00;;;;;;;18.45;14.47;;;;;;;7.64;53.13;99635.25;2370877;81;25599;-75
2021/12/06 09:29:24;;;;;;;20.62;14.20;;;;;;;7.64;53.11;99632.23;2370673;81;25717;-72
2021/12/06 09:32:46;;;;;;;19.73;13.32;;;;;;;7.65;53.09;99631.81;2369755;82;25676;-72
2021/12/06 09:36:10;;;;;;;23.55;16.23;;;;;;;7.66;53.10;99630.56;2367853;81;25591;-74
2021/12/06 09:39:32;;;;;;;22.55;14.35;;;;;;;7.65;53.09;99626.63;2370408;81;25626;-71
2021/12/06 09:42:56;;;;;;;24.27;16.00;;;;;;;7.66;53.09;99625.77;2370719;83;25629;-77
2021/12/06 09:46:18;;;;;;;21.00;14.53;;;;;;;7.66;53.09;99630.95;2357461;82;25586;-72
2021/12/06 09:49:39;;;;;;;22.10;15.68;;;;;;;7.66;53.09;99633.16;2349499;83;25800;-72
2021/12/06 09:53:05;;;;;;;21.90;14.47;;;;;;;7.67;53.09;99623.66;2349333;83;25793;-72
2021/12/06 09:56:34;;;;;;;20.65;14.95;;;;;;;7.66;53.08;99614.09;2349564;83;25668;-72
2021/12/06 09:59:56;;;;;;;24.35;16.42;;;;;;;7.67;53.08;99614.58;2349287;84;25656;-73
2021/12/06 10:03:23;;;;;;;22.17;15.88;;;;;;;7.67;53.06;99618.47;2349610;84;25631;-76
2021/12/06 10:06:43;;;;;;;22.82;15.65;;;;;;;7.66;53.04;99608.52;2348746;83;25656;-73
2021/12/06 10:10:09;;;;;;;22.58;15.55;;;;;;;7.67;53.02;99608.96;2349082;83;25710;-72
2021/12/06 10:13:30;;;;;;;22.80;15.78;;;;;;;7.67;53.00;99609.39;2349335;83;26007;-73
2021/12/06 10:16:52;;;;;;;25.48;16.73;;;;;;;7.67;52.98;99618.47;2349439;83;25596;-79
2021/12/06 10:20:15;;;;;;;25.90;16.77;;;;;;;7.66;52.98;99619.28;2349342;83;25702;-75
2021/12/06 10:23:37;;;;;;;24.98;16.93;;;;;;;7.65;52.98;99614.52;2349294;83;25643;-74
2021/12/06 10:27:07;;;;;;;24.60;16.87;;;;;;;7.67;52.96;99614.15;2349392;83;25870;-74
2021/12/06 10:30:29;;;;;;;21.93;15.75;;;;;;;7.68;52.97;99605.52;2319886;83;26254;-75
2021/12/06 10:33:50;;;;;;;28.95;18.02;;;;;;;7.68;52.93;99606.81;2311918;84;25186;-72
2021/12/06 10:37:34;;;;;;;27.73;17.73;;;;;;;7.70;52.90;99619.41;2312203;84;25305;-73
2021/12/06 10:41:03;;;;;;;27.50;19.15;;;;;;;7.87;54.30;99617.20;2310036;85;25636;-73
2021/12/06 10:44:25;;;;;;;35.65;21.70;;;;;;;7.85;53.80;99625.36;2314766;85;25817;-75
2021/12/06 10:48:13;;;;;;;34.15;22.65;;;;;;;7.74;53.59;99625.12;2337884;81;25643;-72
2021/12/06 10:52:25;;;;;;;30.00;21.07;;;;;;;7.63;53.48;99625.70;2339374;84;25855;-82
2021/12/06 10:55:50;;;;;;;36.95;22.22;;;;;;;7.51;53.31;99632.78;2339309;84;25685;-73
2021/12/06 10:59:22;;;;;;;32.85;22.25;;;;;;;7.39;53.21;99632.09;2339311;82;25669;-72
2021/12/06 11:02:50;;;;;;;41.53;21.57;;;;;;;7.30;53.10;99632.72;2337053;84;26036;-72
2021/12/06 11:06:24;;;;;;;31.62;21.55;;;;;;;7.23;53.04;99639.02;2315895;84;25744;-79
2021/12/06 11:09:46;;;;;;;33.90;21.45;;;;;;;7.17;53.03;99634.55;2338765;82;25793;-74
2021/12/06 11:13:17;;;;;;;40.78;22.58;;;;;;;7.16;52.99;99644.90;2337457;82;25710;-72
2021/12/06 11:16:42;;;;;;;35.88;21.20;;;;;;;7.11;52.90;99640.88;2338817;84;25751;-73
2021/12/06 11:20:06;;;;;;;34.27;21.33;;;;;;;7.06;52.88;99632.12;2343148;81;25812;-74
2021/12/06 11:23:28;;;;;;;36.35;21.90;;;;;;;6.99;52.83;99633.67;2343905;81;25670;-80
2021/12/06 11:26:54;;;;;;;36.13;22.98;;;;;;;6.95;52.83;99633.14;2378199;81;25635;-73
2021/12/06 11:30:20;;;;;;;33.35;21.05;;;;;;;6.93;52.83;99620.98;2382796;81;25738;-75
2021/12/06 11:33:41;;;;;;;32.67;21.93;;;;;;;6.89;52.83;99623.03;2364135;81;25675;-75
2021/12/06 11:37:11;;;;;;;35.65;21.85;;;;;;;6.87;52.83;99626.87;2383592;81;54076;-74
2021/12/06 11:40:58;;;;;;;32.33;20.63;;;;;;;6.85;52.78;99632.02;2280242;86;25685;-74
2021/12/06 11:44:48;;;;;;;32.08;21.50;;;;;;;6.84;52.75;99626.78;2277856;86;26238;-74
2021/12/06 11:48:35;;;;;;;30.00;20.52;;;;;;;6.84;52.70;99628.08;2274137;85;26073;-74
2021/12/06 11:51:58;;;;;;;30.95;19.67;;;;;;;6.80;52.66;99635.31;2217032;87;25734;-74
2021/12/06 11:55:19;;;;;;;30.05;19.42;;;;;;;6.79;52.64;99634.45;2255309;86;26269;-75
2021/12/06 11:58:48;;;;;;;26.15;17.60;;;;;;;6.79;52.62;99634.45;2282622;86;25863;-76
2021/12/06 12:02:08;;;;;;;29.72;19.67;;;;;;;6.93;56.30;99633.94;2268997;86;25815;-73
2021/12/06 12:05:38;;;;;;;25.85;18.30;;;;;;;7.14;54.40;99640.95;2247886;87;25770;-72
2021/12/06 12:09:19;;;;;;;26.10;18.80;;;;;;;7.13;54.16;99642.23;2291961;86;25876;-76
2021/12/06 12:12:46;;;;;;;32.38;19.48;;;;;;;7.07;53.97;99648.12;2295971;86;25729;-74
2021/12/06 12:16:11;;;;;;;32.50;20.43;;;;;;;6.99;53.85;99645.33;2299587;81;25801;-79
2021/12/06 12:19:33;;;;;;;34.03;19.05;;;;;;;6.95;53.73;99643.90;2426402;81;25672;-79
2021/12/06 12:22:57;;;;;;;34.60;20.92;;;;;;;6.90;53.60;99643.79;2426761;80;25624;-75
2021/12/06 12:26:20;;;;;;;34.00;21.12;;;;;;;6.86;53.48;99639.38;2427002;81;25716;-73
2021/12/06 12:29:42;;;;;;;34.10;21.57;;;;;;;6.83;53.38;99637.57;2427223;80;25631;-74
2021/12/06 12:33:06;;;;;;;31.20;21.93;;;;;;;6.77;53.25;99632.22;2427345;80;25656;-74
2021/12/06 12:36:29;;;;;;;33.85;22.05;;;;;;;6.75;53.22;99629.13;2427103;81;25767;-74
2021/12/06 12:40:09;;;;;;;30.43;20.50;;;;;;;6.74;53.09;99628.67;2422135;80;25679;-73
2021/12/06 12:43:51;;;;;;;37.93;22.87;;;;;;;6.73;53.01;99624.33;2427195;81;25679;-74
2021/12/06 12:47:25;;;;;;;33.83;21.45;;;;;;;6.71;52.86;99627.29;2389871;82;25710;-73
2021/12/06 12:51:37;;;;;;;31.97;22.13;;;;;;;6.68;52.81;99629.80;2389809;82;25656;-73
2021/12/06 12:54:58;;;;;;;36.90;23.00;;;;;;;6.65;52.83;99631.91;2340387;83;25699;-74
2021/12/06 12:58:26;;;;;;;38.42;23.15;;;;;;;6.64;52.78;99631.42;2362307;83;25705;-73
2021/12/06 13:02:29;;;;;;;40.08;24.98;;;;;;;6.60;52.75;99629.17;2371852;81;25369;-76
2021/12/06 13:06:41;;;;;;;39.58;23.22;;;;;;;6.58;52.77;99640.31;2297845;84;25955;-73
2021/12/06 13:10:42;;;;;;;41.85;25.05;;;;;;;6.55;52.73;99645.02;2301028;84;25780;-73
2021/12/06 13:14:05;;;;;;;37.42;25.62;;;;;;;6.52;52.75;99656.58;2328041;84;25656;-75
2021/12/06 13:17:41;;;;;;;42.60;26.82;;;;;;;6.50;52.76;99654.78;2328018;84;25680;-81
2021/12/06 13:20:54;;;;;;;40.25;25.50;;;;;;;6.47;52.73;99659.45;2328458;84;26385;-74
2021/12/06 13:24:20;;;;;;;37.20;24.23;;;;;;;6.46;52.70;99668.05;2351336;83;25710;-73
2021/12/06 13:28:13;;;;;;;42.50;24.47;;;;;;;6.44;52.72;99671.42;2359602;83;25692;-75
2021/12/06 13:32:33;;;;;;;42.05;24.43;;;;;;;6.42;52.74;99672.69;2343116;82;25694;-72
2021/12/06 13:35:58;;;;;;;44.08;26.10;;;;;;;6.38;52.74;99668.27;2342445;83;26107;-73
2021/12/06 13:39:45;;;;;;;36.13;23.35;;;;;;;6.36;52.71;99668.63;2319019;84;25858;-74
2021/12/06 13:43:11;;;;;;;39.35;24.60;;;;;;;6.33;52.67;99668.11;2322304;83;25992;-74
2021/12/06 13:46:36;;;;;;;39.67;24.82;;;;;;;6.33;52.69;99679.76;2311029;83;25648;-75
2021/12/06 13:50:17;;;;;;;40.58;26.12;;;;;;;6.31;52.71;99687.92;2311641;83;25656;-74
2021/12/06 13:53:38;;;;;;;39.85;26.02;;;;;;;6.30;52.69;99699.50;2288985;84;25678;-73
2021/12/06 13:57:10;;;;;;;37.17;24.37;;;;;;;6.29;52.68;99701.22;2313724;85;25695;-74
2021/12/06 14:00:42;;;;;;;38.40;24.60;;;;;;;6.28;52.62;99700.77;2318225;84;25922;-74
2021/12/06 14:04:24;;;;;;;41.58;25.00;;;;;;;6.19;52.62;99687.55;2314367;84;25692;-74
2021/12/06 14:08:03;;;;;;;;;;;;;;;6.24;52.58;99698.89;2334753;83;25723;-73
2021/12/06 14:11:26;;;;;;;35.35;21.90;;;;;;;6.24;52.53;99713.55;2366062;81;25764;-74
2021/12/06 14:14:50;;;;;;;30.90;21.87;;;;;;;6.19;52.51;99713.42;2364207;83;25666;-76
2021/12/06 14:18:14;;;;;;;36.73;21.65;;;;;;;6.17;52.42;99708.61;2366327;81;26294;-73
2021/12/06 14:21:40;;;;;;;33.80;21.95;;;;;;;6.14;52.43;99717.56;2331515;83;25900;-73
2021/12/06 14:25:02;;;;;;;32.10;21.12;;;;;;;6.13;52.41;99722.28;2327248;84;25698;-74
2021/12/06 14:28:39;;;;;;;33.00;22.95;;;;;;;6.11;52.38;99727.43;2322058;83;25714;-73
2021/12/06 14:32:09;;;;;;;39.20;25.12;;;;;;;6.11;52.35;99731.73;2325478;83;25702;-73
2021/12/06 14:35:30;;;;;;;34.67;21.33;;;;;;;6.09;52.35;99726.91;2322841;83;25977;-72
2021/12/06 14:38:51;;;;;;;34.10;23.02;;;;;;;6.05;52.34;99723.77;2319878;83;25244;-72
2021/12/06 14:42:17;;;;;;;39.03;23.92;;;;;;;6.03;52.33;99718.53;2325863;85;25729;-73
2021/12/06 14:45:42;;;;;;;33.53;23.55;;;;;;;6.02;52.34;99724.97;2324987;83;25249;-74
2021/12/06 14:49:12;;;;;;;35.83;24.15;;;;;;;5.99;52.31;99723.58;2306182;83;25740;-75
2021/12/06 14:52:38;;;;;;;36.93;24.52;;;;;;;5.97;52.38;99723.93;2308851;85;25589;-74
2021/12/06 14:56:10;;;;;;;35.95;23.32;;;;;;;5.95;52.36;99729.07;2309054;85;25664;-72
2021/12/06 14:59:32;;;;;;;34.50;23.73;;;;;;;5.94;52.40;99726.03;2307094;84;25913;-76
2021/12/06 15:03:14;;;;;;;35.58;23.42;;;;;;;5.95;52.39;99716.56;2311754;84;26216;-75
2021/12/06 15:06:36;;;;;;;34.38;23.40;;;;;;;5.91;52.40;99711.67;2292730;85;26593;-75
2021/12/06 15:11:40;;;;;;;35.50;22.53;;;;;;;5.95;52.36;99722.61;2522846;77;25964;-75
2021/12/06 15:15:32;;;;;;;32.58;23.10;;;;;;;5.92;52.37;99731.53;2457391;80;25677;-75
2021/12/06 15:18:55;;;;;;;33.95;21.65;;;;;;;5.95;52.35;99726.48;2440977;80;25711;-74
2021/12/06 15:22:23;;;;;;;37.17;22.95;;;;;;;6.01;52.28;99724.52;2444687;80;25261;-74
2021/12/06 15:26:06;;;;;;;29.23;20.72;;;;;;;6.09;53.52;99734.25;2433332;78;26342;-75
2021/12/06 15:29:52;;;;;;;30.72;20.92;;;;;;;6.17;53.62;99726.72;2432586;80;25923;-75
2021/12/06 15:33:43;;;;;;;36.60;22.27;;;;;;;6.23;53.68;99735.09;2427808;80;26256;-74
2021/12/06 15:37:05;;;;;;;33.50;21.42;;;;;;;6.24;53.56;99736.84;2432776;78;26291;-73
2021/12/06 15:40:26;;;;;;;31.68;20.77;;;;;;;6.25;53.45;99746.39;2436834;78;25656;-74
2021/12/06 15:44:01;;;;;;;30.37;22.17;;;;;;;6.27;53.34;99747.30;2443290;78;25499;-74
2021/12/06 15:47:37;;;;;;;32.17;22.15;;;;;;;6.27;53.26;99742.12;2452682;78;25648;-76
2021/12/06 15:51:27;;;;;;;31.73;21.52;;;;;;;6.27;53.16;99733.94;2441987;80;26063;-75
2021/12/06 15:55:02;;;;;;;34.27;23.42;;;;;;;6.24;52.92;99736.84;2456068;80;26057;-74
2021/12/06 15:58:44;;;;;;;36.77;24.50;;;;;;;6.19;52.81;99742.31;2458439;80;25627;-74
2021/12/06 16:02:17;;;;;;;35.05;22.93;;;;;;;6.13;52.70;99754.22;2463053;80;25696;-76
2021/12/06 16:05:44;;;;;;;31.97;22.32;;;;;;;6.08;52.61;99753.21;2470263;80;25636;-78
2021/12/06 16:09:13;;;;;;;31.37;21.20;;;;;;;6.04;52.55;99756.54;2467839;80;25762;-75
2021/12/06 16:12:58;;;;;;;34.08;22.55;;;;;;;5.98;52.53;99760.22;2466865;78;25671;-75
2021/12/06 16:16:25;;;;;;;35.75;21.50;;;;;;;5.94;52.47;99772.98;2458162;80;25639;-75
2021/12/06 16:19:47;;;;;;;31.75;20.68;;;;;;;5.89;52.47;99776.70;2455557;80;25931;-77
2021/12/06 16:23:38;;;;;;;36.83;21.97;;;;;;;5.85;52.43;99777.44;2448861;79;26146;-74
2021/12/06 16:27:32;;;;;;;32.73;20.72;;;;;;;5.84;52.46;99784.73;2454595;78;25678;-74
2021/12/06 16:31:14;;;;;;;33.92;20.17;;;;;;;5.82;52.47;99788.55;2439875;80;25867;-74
2021/12/06 16:34:52;;;;;;;37.98;21.55;;;;;;;5.83;52.41;99795.89;2453055;78;25667;-73
2021/12/06 16:46:39;;;;;;;31.57;19.87;;;;;;;5.95;52.34;99806.69;2329108;81;26177;-76
2021/12/06 16:50:16;;;;;;;31.65;19.17;;;;;;;6.01;52.28;99804.30;2324363;81;25789;-73
2021/12/06 16:53:51;;;;;;;28.67;19.48;;;;;;;6.06;52.26;99809.20;2339646;81;25501;-74
2021/12/06 16:57:21;;;;;;;28.85;19.98;;;;;;;6.08;52.25;99802.37;2344254;83;25696;-74